sensor_id;sensor_type;location;lat;lon;timestamp;pressure;altitude;pressure_sealevel;temperature;humidity
6615;BME280;3343;42.896;23.912;2022-07-06T00:01:15;96472.06;;;29.68;59.30
6615;BME280;3343;42.896;23.912;2022-07-06T00:03:43;96467.72;;;29.98;58.55
6615;BME280;3343;42.896;23.912;2022-07-06T00:06:11;96453.53;;;30.01;58.97
6615;BME280;3343;42.896;23.912;2022-07-06T00:08:39;96456.06;;;29.97;58.83
6615;BME280;3343;42.896;23.912;2022-07-06T00:11:06;96442.88;;;30.04;60.52
6615;BME280;3343;42.896;23.912;2022-07-06T00:13:33;96429.81;;;30.06;59.24
6615;BME280;3343;42.896;23.912;2022-07-06T00:16:00;96419.56;;;30.03;58.37
6615;BME280;3343;42.896;23.912;2022-07-06T00:18:27;96406.31;;;29.40;60.92
6615;BME280;3343;42.896;23.912;2022-07-06T00:20:55;96391.06;;;29.44;61.40
6615;BME280;3343;42.896;23.912;2022-07-06T00:23:43;96381.78;;;28.55;67.78
6615;BME280;3343;42.896;23.912;2022-07-06T00:26:11;96372.78;;;27.97;70.95
6615;BME280;3343;42.896;23.912;2022-07-06T00:28:37;96356.75;;;28.50;68.26
6615;BME280;3343;42.896;23.912;2022-07-06T00:31:04;96345.63;;;28.74;67.67
6615;BME280;3343;42.896;23.912;2022-07-06T00:33:32;96331.06;;;28.83;67.05
6615;BME280;3343;42.896;23.912;2022-07-06T00:35:59;96309.31;;;28.52;68.78
6615;BME280;3343;42.896;23.912;2022-07-06T00:38:26;96308.06;;;28.59;67.63
6615;BME280;3343;42.896;23.912;2022-07-06T00:40:54;96283.94;;;28.48;68.82
6615;BME280;3343;42.896;23.912;2022-07-06T00:43:21;96287.09;;;28.06;61.35
6615;BME280;3343;42.896;23.912;2022-07-06T00:45:49;96274.06;;;28.44;62.58
6615;BME280;3343;42.896;23.912;2022-07-06T00:48:15;96272.22;;;28.31;63.63
6615;BME280;3343;42.896;23.912;2022-07-06T00:50:42;96274.13;;;28.75;63.01
6615;BME280;3343;42.896;23.912;2022-07-06T00:53:09;96299.84;;;27.91;71.24
6615;BME280;3343;42.896;23.912;2022-07-06T00:55:37;96319.34;;;28.16;74.36
6615;BME280;3343;42.896;23.912;2022-07-06T00:58:07;96328.34;;;27.75;75.49
6615;BME280;3343;42.896;23.912;2022-07-06T01:00:35;96338.94;;;27.85;75.17
6615;BME280;3343;42.896;23.912;2022-07-06T01:03:03;96350.91;;;27.52;76.23
6615;BME280;3343;42.896;23.912;2022-07-06T01:05:29;96354.84;;;27.00;80.00
6615;BME280;3343;42.896;23.912;2022-07-06T01:07:57;96377.63;;;27.26;78.59
6615;BME280;3343;42.896;23.912;2022-07-06T01:10:24;96369.34;;;28.18;76.95
6615;BME280;3343;42.896;23.912;2022-07-06T01:12:59;96359.03;;;28.57;73.01
6615;BME280;3343;42.896;23.912;2022-07-06T01:15:27;96365.34;;;28.88;72.12
6615;BME280;3343;42.896;23.912;2022-07-06T01:17:54;96364.84;;;29.08;71.19
6615;BME280;3343;42.896;23.912;2022-07-06T01:20:24;96359.75;;;29.38;71.23
6615;BME280;3343;42.896;23.912;2022-07-06T01:22:53;96365.16;;;29.60;68.61
6615;BME280;3343;42.896;23.912;2022-07-06T01:25:21;96375.88;;;29.74;67.12
6615;BME280;3343;42.896;23.912;2022-07-06T01:27:48;96379.22;;;29.71;70.42
6615;BME280;3343;42.896;23.912;2022-07-06T01:30:17;96371.66;;;29.51;70.65
6615;BME280;3343;42.896;23.912;2022-07-06T01:32:45;96374.56;;;29.63;69.85
6615;BME280;3343;42.896;23.912;2022-07-06T01:35:14;96371.38;;;28.49;75.71
6615;BME280;3343;42.896;23.912;2022-07-06T01:37:43;96375.56;;;28.05;78.28
6615;BME280;3343;42.896;23.912;2022-07-06T01:40:11;96379.94;;;28.42;76.03
6615;BME280;3343;42.896;23.912;2022-07-06T01:42:38;96368.91;;;28.75;73.43
6615;BME280;3343;42.896;23.912;2022-07-06T01:45:07;96373.84;;;28.95;72.53
6615;BME280;3343;42.896;23.912;2022-07-06T01:47:34;96364.84;;;28.28;76.11
6615;BME280;3343;42.896;23.912;2022-07-06T01:50:04;96374.63;;;27.27;82.05
6615;BME280;3343;42.896;23.912;2022-07-06T01:52:32;96374.13;;;27.53;80.05
6615;BME280;3343;42.896;23.912;2022-07-06T01:55:00;96370.28;;;27.86;80.50
6615;BME280;3343;42.896;23.912;2022-07-06T01:57:27;96377.72;;;28.44;77.41
6615;BME280;3343;42.896;23.912;2022-07-06T01:59:54;96373.50;;;27.88;78.09
6615;BME280;3343;42.896;23.912;2022-07-06T02:02:21;96379.53;;;28.35;77.60
6615;BME280;3343;42.896;23.912;2022-07-06T02:04:48;96385.66;;;27.58;79.72
6615;BME280;3343;42.896;23.912;2022-07-06T02:07:15;96385.75;;;27.53;79.77
6615;BME280;3343;42.896;23.912;2022-07-06T02:09:42;96388.03;;;28.42;75.29
6615;BME280;3343;42.896;23.912;2022-07-06T02:12:10;96399.66;;;28.93;72.77
6615;BME280;3343;42.896;23.912;2022-07-06T02:14:37;96404.94;;;28.98;73.57
6615;BME280;3343;42.896;23.912;2022-07-06T02:17:04;96408.06;;;28.55;75.69
6615;BME280;3343;42.896;23.912;2022-07-06T02:19:31;96408.28;;;28.45;74.05
6615;BME280;3343;42.896;23.912;2022-07-06T02:21:58;96411.75;;;27.96;75.49
6615;BME280;3343;42.896;23.912;2022-07-06T02:24:25;96428.94;;;28.41;73.75
6615;BME280;3343;42.896;23.912;2022-07-06T02:26:51;96425.28;;;28.23;74.10
6615;BME280;3343;42.896;23.912;2022-07-06T02:29:20;96437.16;;;28.49;74.15
6615;BME280;3343;42.896;23.912;2022-07-06T02:31:47;96444.06;;;28.55;74.66
6615;BME280;3343;42.896;23.912;2022-07-06T02:34:14;96440.66;;;28.50;75.02
6615;BME280;3343;42.896;23.912;2022-07-06T02:36:40;96455.19;;;28.68;74.50
6615;BME280;3343;42.896;23.912;2022-07-06T02:39:07;96449.16;;;29.07;71.95
6615;BME280;3343;42.896;23.912;2022-07-06T02:41:34;96456.41;;;28.62;72.34
6615;BME280;3343;42.896;23.912;2022-07-06T02:44:01;96456.41;;;28.48;73.41
6615;BME280;3343;42.896;23.912;2022-07-06T02:46:29;96457.72;;;29.00;70.85
6615;BME280;3343;42.896;23.912;2022-07-06T02:48:56;96469.28;;;28.92;72.84
6615;BME280;3343;42.896;23.912;2022-07-06T02:51:23;96468.19;;;29.15;71.01
6615;BME280;3343;42.896;23.912;2022-07-06T02:53:50;96474.97;;;29.04;71.77
6615;BME280;3343;42.896;23.912;2022-07-06T02:56:17;96480.50;;;28.99;72.27
6615;BME280;3343;42.896;23.912;2022-07-06T02:58:44;96477.53;;;28.73;74.34
6615;BME280;3343;42.896;23.912;2022-07-06T03:01:11;96487.88;;;28.85;73.42
6615;BME280;3343;42.896;23.912;2022-07-06T03:03:39;96489.66;;;28.90;72.80
6615;BME280;3343;42.896;23.912;2022-07-06T03:06:06;96487.47;;;28.78;72.67
6615;BME280;3343;42.896;23.912;2022-07-06T03:08:33;96484.13;;;28.95;72.37
6615;BME280;3343;42.896;23.912;2022-07-06T03:11:00;96489.16;;;28.88;71.92
6615;BME280;3343;42.896;23.912;2022-07-06T03:13:27;96493.16;;;28.90;72.09
6615;BME280;3343;42.896;23.912;2022-07-06T03:15:55;96495.81;;;28.68;72.48
6615;BME280;3343;42.896;23.912;2022-07-06T03:18:22;96480.66;;;28.53;72.92
6615;BME280;3343;42.896;23.912;2022-07-06T03:20:50;96494.59;;;28.60;72.02
6615;BME280;3343;42.896;23.912;2022-07-06T03:23:17;96493.22;;;28.63;72.85
6615;BME280;3343;42.896;23.912;2022-07-06T03:25:44;96496.69;;;28.77;72.23
6615;BME280;3343;42.896;23.912;2022-07-06T03:28:11;96496.31;;;28.56;72.84
6615;BME280;3343;42.896;23.912;2022-07-06T03:30:38;96500.22;;;28.64;72.83
6615;BME280;3343;42.896;23.912;2022-07-06T03:33:07;96483.19;;;28.49;73.04
6615;BME280;3343;42.896;23.912;2022-07-06T03:35:33;96511.88;;;28.23;74.32
6615;BME280;3343;42.896;23.912;2022-07-06T03:38:02;96507.22;;;28.10;75.89
6615;BME280;3343;42.896;23.912;2022-07-06T03:40:30;96514.34;;;27.92;76.07
6615;BME280;3343;42.896;23.912;2022-07-06T03:42:56;96505.75;;;28.31;74.77
6615;BME280;3343;42.896;23.912;2022-07-06T03:45:23;96499.72;;;28.62;72.69
6615;BME280;3343;42.896;23.912;2022-07-06T03:47:50;96506.41;;;28.78;71.57
6615;BME280;3343;42.896;23.912;2022-07-06T03:50:17;96509.44;;;28.90;69.57
6615;BME280;3343;42.896;23.912;2022-07-06T03:52:44;96513.88;;;28.45;72.52
6615;BME280;3343;42.896;23.912;2022-07-06T03:55:12;96510.09;;;27.53;77.92
6615;BME280;3343;42.896;23.912;2022-07-06T03:57:39;96509.25;;;27.39;79.24
6615;BME280;3343;42.896;23.912;2022-07-06T04:00:08;96504.84;;;27.62;77.75
6615;BME280;3343;42.896;23.912;2022-07-06T04:02:35;96499.28;;;27.53;78.61
6615;BME280;3343;42.896;23.912;2022-07-06T04:05:02;96502.06;;;26.97;80.79
6615;BME280;3343;42.896;23.912;2022-07-06T04:07:29;96504.31;;;26.90;80.99
6615;BME280;3343;42.896;23.912;2022-07-06T04:09:56;96502.34;;;26.95;81.45
6615;BME280;3343;42.896;23.912;2022-07-06T04:12:24;96506.44;;;27.63;78.74
6615;BME280;3343;42.896;23.912;2022-07-06T04:14:51;96497.50;;;27.81;77.66
6615;BME280;3343;42.896;23.912;2022-07-06T04:17:18;96503.44;;;28.25;75.57
6615;BME280;3343;42.896;23.912;2022-07-06T04:20:03;96500.13;;;28.41;74.99
6615;BME280;3343;42.896;23.912;2022-07-06T04:22:30;96500.72;;;28.66;73.28
6615;BME280;3343;42.896;23.912;2022-07-06T04:24:58;96500.81;;;28.61;72.27
6615;BME280;3343;42.896;23.912;2022-07-06T04:27:27;96506.53;;;28.87;71.62
6615;BME280;3343;42.896;23.912;2022-07-06T04:29:54;96507.34;;;28.73;71.83
6615;BME280;3343;42.896;23.912;2022-07-06T04:32:21;96501.63;;;28.75;72.10
6615;BME280;3343;42.896;23.912;2022-07-06T04:34:48;96501.72;;;28.70;71.14
6615;BME280;3343;42.896;23.912;2022-07-06T04:37:16;96517.38;;;29.09;71.22
6615;BME280;3343;42.896;23.912;2022-07-06T04:39:43;96516.16;;;28.51;71.37
6615;BME280;3343;42.896;23.912;2022-07-06T04:42:09;96513.53;;;28.05;74.73
6615;BME280;3343;42.896;23.912;2022-07-06T04:44:38;96514.28;;;28.38;74.85
6615;BME280;3343;42.896;23.912;2022-07-06T04:47:05;96516.38;;;28.41;73.55
6615;BME280;3343;42.896;23.912;2022-07-06T04:49:32;96517.97;;;28.56;73.46
6615;BME280;3343;42.896;23.912;2022-07-06T04:51:59;96512.38;;;28.39;74.03
6615;BME280;3343;42.896;23.912;2022-07-06T04:54:26;96504.25;;;28.39;73.42
6615;BME280;3343;42.896;23.912;2022-07-06T04:56:52;96508.25;;;28.28;73.22
6615;BME280;3343;42.896;23.912;2022-07-06T04:59:19;96507.84;;;28.20;72.65
6615;BME280;3343;42.896;23.912;2022-07-06T05:01:47;96504.53;;;28.65;70.92
6615;BME280;3343;42.896;23.912;2022-07-06T05:04:15;96494.91;;;28.59;70.34
6615;BME280;3343;42.896;23.912;2022-07-06T05:06:43;96506.22;;;28.61;70.60
6615;BME280;3343;42.896;23.912;2022-07-06T05:09:11;96511.44;;;28.71;70.99
6615;BME280;3343;42.896;23.912;2022-07-06T05:11:38;96509.53;;;28.58;72.07
6615;BME280;3343;42.896;23.912;2022-07-06T05:14:05;96519.44;;;27.94;74.33
6615;BME280;3343;42.896;23.912;2022-07-06T05:16:41;96512.97;;;28.36;71.90
6615;BME280;3343;42.896;23.912;2022-07-06T05:19:10;96524.38;;;28.88;71.12
6615;BME280;3343;42.896;23.912;2022-07-06T05:21:37;96528.66;;;29.02;69.48
6615;BME280;3343;42.896;23.912;2022-07-06T05:24:05;96524.72;;;29.31;69.36
6615;BME280;3343;42.896;23.912;2022-07-06T05:26:32;96513.63;;;29.41;67.71
6615;BME280;3343;42.896;23.912;2022-07-06T05:28:59;96523.03;;;29.79;65.98
6615;BME280;3343;42.896;23.912;2022-07-06T05:31:26;96537.25;;;30.07;64.95
6615;BME280;3343;42.896;23.912;2022-07-06T05:33:53;96524.34;;;30.53;65.50
6615;BME280;3343;42.896;23.912;2022-07-06T05:36:21;96541.59;;;31.40;63.59
6615;BME280;3343;42.896;23.912;2022-07-06T05:38:48;96540.72;;;32.08;58.04
6615;BME280;3343;42.896;23.912;2022-07-06T05:41:15;96537.88;;;31.79;57.76
6615;BME280;3343;42.896;23.912;2022-07-06T05:43:42;96539.66;;;31.66;59.46
6615;BME280;3343;42.896;23.912;2022-07-06T05:46:09;96543.34;;;31.70;58.11
6615;BME280;3343;42.896;23.912;2022-07-06T05:48:36;96539.31;;;31.85;57.77
6615;BME280;3343;42.896;23.912;2022-07-06T05:51:21;96550.72;;;31.70;58.14
6615;BME280;3343;42.896;23.912;2022-07-06T05:53:48;96550.22;;;31.50;59.35
6615;BME280;3343;42.896;23.912;2022-07-06T05:56:17;96556.13;;;31.18;59.50
6615;BME280;3343;42.896;23.912;2022-07-06T05:58:45;96552.41;;;31.05;61.89
6615;BME280;3343;42.896;23.912;2022-07-06T06:01:12;96558.19;;;31.12;62.37
6615;BME280;3343;42.896;23.912;2022-07-06T06:03:40;96555.28;;;31.00;62.94
6615;BME280;3343;42.896;23.912;2022-07-06T06:06:07;96544.91;;;30.93;63.95
6615;BME280;3343;42.896;23.912;2022-07-06T06:08:37;96546.66;;;31.06;63.72
6615;BME280;3343;42.896;23.912;2022-07-06T06:11:03;96542.50;;;30.92;64.15
6615;BME280;3343;42.896;23.912;2022-07-06T06:13:30;96534.25;;;30.57;65.32
6615;BME280;3343;42.896;23.912;2022-07-06T06:15:57;96538.94;;;30.74;64.96
6615;BME280;3343;42.896;23.912;2022-07-06T06:18:24;96536.06;;;30.70;64.45
6615;BME280;3343;42.896;23.912;2022-07-06T06:20:51;96535.41;;;30.65;64.85
6615;BME280;3343;42.896;23.912;2022-07-06T06:23:18;96535.00;;;30.40;65.65
6615;BME280;3343;42.896;23.912;2022-07-06T06:25:46;96538.44;;;30.63;65.64
6615;BME280;3343;42.896;23.912;2022-07-06T06:28:13;96535.31;;;30.39;64.67
6615;BME280;3343;42.896;23.912;2022-07-06T06:30:40;96540.00;;;30.16;66.43
6615;BME280;3343;42.896;23.912;2022-07-06T06:33:08;96541.97;;;30.64;65.05
6615;BME280;3343;42.896;23.912;2022-07-06T06:35:37;96535.94;;;30.93;63.94
6615;BME280;3343;42.896;23.912;2022-07-06T06:38:04;96542.31;;;30.71;65.16
6615;BME280;3343;42.896;23.912;2022-07-06T06:40:31;96529.41;;;30.06;66.30
6615;BME280;3343;42.896;23.912;2022-07-06T06:42:59;96533.94;;;30.19;67.87
6615;BME280;3343;42.896;23.912;2022-07-06T06:45:26;96527.22;;;30.56;65.25
6615;BME280;3343;42.896;23.912;2022-07-06T06:47:53;96535.72;;;30.63;64.23
6615;BME280;3343;42.896;23.912;2022-07-06T06:50:20;96531.63;;;31.00;60.36
6615;BME280;3343;42.896;23.912;2022-07-06T06:52:48;96528.28;;;31.12;59.83
6615;BME280;3343;42.896;23.912;2022-07-06T06:55:19;96531.53;;;31.40;57.78
6615;BME280;3343;42.896;23.912;2022-07-06T06:57:46;96526.66;;;30.94;57.67
6615;BME280;3343;42.896;23.912;2022-07-06T07:00:15;96526.25;;;30.52;60.20
6615;BME280;3343;42.896;23.912;2022-07-06T07:02:41;96527.41;;;30.20;59.34
6615;BME280;3343;42.896;23.912;2022-07-06T07:05:09;96522.84;;;31.03;57.98
6615;BME280;3343;42.896;23.912;2022-07-06T07:07:35;96534.22;;;31.49;56.61
6615;BME280;3343;42.896;23.912;2022-07-06T07:10:04;96532.44;;;31.87;54.69
6615;BME280;3343;42.896;23.912;2022-07-06T07:12:31;96529.81;;;32.08;55.09
6615;BME280;3343;42.896;23.912;2022-07-06T07:14:58;96540.06;;;32.03;52.95
6615;BME280;3343;42.896;23.912;2022-07-06T07:17:26;96537.44;;;32.23;53.09
6615;BME280;3343;42.896;23.912;2022-07-06T07:19:53;96539.66;;;32.39;53.60
6615;BME280;3343;42.896;23.912;2022-07-06T07:22:22;96540.47;;;32.69;51.92
6615;BME280;3343;42.896;23.912;2022-07-06T07:24:49;96527.41;;;32.53;50.62
6615;BME280;3343;42.896;23.912;2022-07-06T07:27:16;96542.66;;;32.75;50.39
6615;BME280;3343;42.896;23.912;2022-07-06T07:29:43;96538.63;;;32.81;48.93
6615;BME280;3343;42.896;23.912;2022-07-06T07:32:10;96541.84;;;32.83;47.58
6615;BME280;3343;42.896;23.912;2022-07-06T07:34:38;96539.47;;;32.44;45.65
6615;BME280;3343;42.896;23.912;2022-07-06T07:37:05;96538.91;;;32.29;46.18
6615;BME280;3343;42.896;23.912;2022-07-06T07:39:32;96534.06;;;31.62;50.01
6615;BME280;3343;42.896;23.912;2022-07-06T07:41:59;96537.16;;;32.08;49.01
6615;BME280;3343;42.896;23.912;2022-07-06T07:44:26;96539.34;;;31.50;47.66
6615;BME280;3343;42.896;23.912;2022-07-06T07:46:53;96529.56;;;31.66;48.72
6615;BME280;3343;42.896;23.912;2022-07-06T07:49:19;96536.53;;;32.11;47.48
6615;BME280;3343;42.896;23.912;2022-07-06T07:51:48;96526.22;;;31.78;48.67
6615;BME280;3343;42.896;23.912;2022-07-06T07:54:16;96527.22;;;31.30;50.33
6615;BME280;3343;42.896;23.912;2022-07-06T07:56:43;96536.56;;;30.72;50.71
6615;BME280;3343;42.896;23.912;2022-07-06T07:59:10;96539.75;;;30.74;52.99
6615;BME280;3343;42.896;23.912;2022-07-06T08:01:37;96535.75;;;30.72;52.41
6615;BME280;3343;42.896;23.912;2022-07-06T08:04:04;96534.84;;;30.37;53.75
6615;BME280;3343;42.896;23.912;2022-07-06T08:06:31;96534.22;;;30.09;55.72
6615;BME280;3343;42.896;23.912;2022-07-06T08:08:59;96546.03;;;30.44;55.12
6615;BME280;3343;42.896;23.912;2022-07-06T08:11:29;96546.19;;;30.39;55.17
6615;BME280;3343;42.896;23.912;2022-07-06T08:13:56;96541.59;;;30.17;55.37
6615;BME280;3343;42.896;23.912;2022-07-06T08:16:23;96545.91;;;30.18;55.46
6615;BME280;3343;42.896;23.912;2022-07-06T08:18:50;96550.19;;;30.41;55.49
6615;BME280;3343;42.896;23.912;2022-07-06T08:21:17;96545.44;;;30.56;55.33
6615;BME280;3343;42.896;23.912;2022-07-06T08:23:44;96547.66;;;30.54;55.47
6615;BME280;3343;42.896;23.912;2022-07-06T08:26:12;96540.00;;;30.56;56.09
6615;BME280;3343;42.896;23.912;2022-07-06T08:28:39;96548.03;;;30.61;56.33
6615;BME280;3343;42.896;23.912;2022-07-06T08:31:06;96544.19;;;30.00;55.70
6615;BME280;3343;42.896;23.912;2022-07-06T08:33:41;96546.72;;;29.65;58.08
6615;BME280;3343;42.896;23.912;2022-07-06T08:36:08;96558.38;;;30.19;55.45
6615;BME280;3343;42.896;23.912;2022-07-06T08:38:35;96554.63;;;30.37;54.60
6615;BME280;3343;42.896;23.912;2022-07-06T08:41:02;96556.91;;;30.44;54.18
6615;BME280;3343;42.896;23.912;2022-07-06T08:43:34;96542.06;;;29.88;55.21
6615;BME280;3343;42.896;23.912;2022-07-06T08:46:02;96543.47;;;30.39;56.59
6615;BME280;3343;42.896;23.912;2022-07-06T08:48:31;96548.13;;;31.64;51.45
6615;BME280;3343;42.896;23.912;2022-07-06T08:51:02;96548.22;;;32.11;49.42
6615;BME280;3343;42.896;23.912;2022-07-06T08:53:29;96554.00;;;33.15;47.45
6615;BME280;3343;42.896;23.912;2022-07-06T08:55:56;96553.53;;;33.34;45.13
6615;BME280;3343;42.896;23.912;2022-07-06T08:58:24;96553.78;;;33.83;44.46
6615;BME280;3343;42.896;23.912;2022-07-06T09:00:53;96547.09;;;33.72;41.20
6615;BME280;3343;42.896;23.912;2022-07-06T09:03:20;96548.75;;;33.31;42.88
6615;BME280;3343;42.896;23.912;2022-07-06T09:05:50;96534.28;;;34.17;40.74
6615;BME280;3343;42.896;23.912;2022-07-06T09:08:18;96525.19;;;34.26;38.69
6615;BME280;3343;42.896;23.912;2022-07-06T09:10:45;96543.44;;;34.46;38.30
6615;BME280;3343;42.896;23.912;2022-07-06T09:13:12;96540.84;;;33.92;41.58
6615;BME280;3343;42.896;23.912;2022-07-06T09:15:39;96537.75;;;33.19;42.07
6615;BME280;3343;42.896;23.912;2022-07-06T09:18:07;96543.13;;;33.28;41.80
6615;BME280;3343;42.896;23.912;2022-07-06T09:20:34;96543.50;;;32.38;43.64
6615;BME280;3343;42.896;23.912;2022-07-06T09:23:03;96535.03;;;31.49;45.85
6615;BME280;3343;42.896;23.912;2022-07-06T09:25:32;96531.34;;;31.45;45.91
6615;BME280;3343;42.896;23.912;2022-07-06T09:28:00;96526.41;;;31.47;46.93
6615;BME280;3343;42.896;23.912;2022-07-06T09:30:28;96532.59;;;32.38;45.40
6615;BME280;3343;42.896;23.912;2022-07-06T09:32:56;96535.56;;;32.24;44.73
6615;BME280;3343;42.896;23.912;2022-07-06T09:35:26;96541.22;;;31.93;46.25
6615;BME280;3343;42.896;23.912;2022-07-06T09:38:01;96518.84;;;31.79;47.09
6615;BME280;3343;42.896;23.912;2022-07-06T09:40:30;96537.44;;;32.23;46.06
6615;BME280;3343;42.896;23.912;2022-07-06T09:43:08;96535.84;;;32.60;45.72
6615;BME280;3343;42.896;23.912;2022-07-06T09:45:35;96533.78;;;32.19;46.76
6615;BME280;3343;42.896;23.912;2022-07-06T09:48:06;96532.66;;;32.58;46.23
6615;BME280;3343;42.896;23.912;2022-07-06T09:50:40;96535.63;;;32.45;47.58
6615;BME280;3343;42.896;23.912;2022-07-06T09:53:07;96533.38;;;32.47;46.71
6615;BME280;3343;42.896;23.912;2022-07-06T09:55:34;96532.78;;;32.33;46.77
6615;BME280;3343;42.896;23.912;2022-07-06T09:58:01;96520.03;;;32.16;46.58
6615;BME280;3343;42.896;23.912;2022-07-06T10:00:29;96524.28;;;31.79;46.35
6615;BME280;3343;42.896;23.912;2022-07-06T10:02:56;96528.44;;;31.76;45.94
6615;BME280;3343;42.896;23.912;2022-07-06T10:05:23;96533.22;;;31.01;47.53
6615;BME280;3343;42.896;23.912;2022-07-06T10:07:57;96523.31;;;31.66;47.52
6615;BME280;3343;42.896;23.912;2022-07-06T10:10:26;96524.72;;;31.98;46.64
6615;BME280;3343;42.896;23.912;2022-07-06T10:12:56;96524.28;;;31.79;46.28
6615;BME280;3343;42.896;23.912;2022-07-06T10:15:25;96533.16;;;32.05;46.85
6615;BME280;3343;42.896;23.912;2022-07-06T10:17:53;96527.91;;;32.09;46.41
6615;BME280;3343;42.896;23.912;2022-07-06T10:20:22;96531.88;;;32.58;45.94
6615;BME280;3343;42.896;23.912;2022-07-06T10:22:49;96526.63;;;32.82;45.62
6615;BME280;3343;42.896;23.912;2022-07-06T10:25:19;96519.25;;;32.74;43.47
6615;BME280;3343;42.896;23.912;2022-07-06T10:27:47;96530.34;;;32.69;44.45
6615;BME280;3343;42.896;23.912;2022-07-06T10:30:14;96513.53;;;32.67;43.51
6615;BME280;3343;42.896;23.912;2022-07-06T10:32:44;96519.19;;;32.33;46.01
6615;BME280;3343;42.896;23.912;2022-07-06T10:35:12;96512.88;;;32.70;43.64
6615;BME280;3343;42.896;23.912;2022-07-06T10:37:39;96518.81;;;32.43;45.53
6615;BME280;3343;42.896;23.912;2022-07-06T10:40:08;96517.94;;;33.10;45.06
6615;BME280;3343;42.896;23.912;2022-07-06T10:42:58;96500.13;;;33.33;43.04
6615;BME280;3343;42.896;23.912;2022-07-06T10:45:49;96511.19;;;32.86;44.31
6615;BME280;3343;42.896;23.912;2022-07-06T10:48:17;96514.75;;;32.02;47.54
6615;BME280;3343;42.896;23.912;2022-07-06T10:50:47;96510.19;;;31.68;49.95
6615;BME280;3343;42.896;23.912;2022-07-06T10:53:15;96513.38;;;31.87;48.93
6615;BME280;3343;42.896;23.912;2022-07-06T10:55:44;96515.84;;;31.37;49.60
6615;BME280;3343;42.896;23.912;2022-07-06T10:58:13;96512.72;;;30.61;50.28
6615;BME280;3343;42.896;23.912;2022-07-06T11:00:50;96509.72;;;30.88;50.49
6615;BME280;3343;42.896;23.912;2022-07-06T11:03:30;96519.22;;;31.25;48.10
6615;BME280;3343;42.896;23.912;2022-07-06T11:05:59;96515.19;;;31.57;49.63
6615;BME280;3343;42.896;23.912;2022-07-06T11:08:50;96519.31;;;31.81;46.99
6615;BME280;3343;42.896;23.912;2022-07-06T11:11:19;96522.84;;;31.73;48.17
6615;BME280;3343;42.896;23.912;2022-07-06T11:13:55;96522.53;;;31.14;50.73
6615;BME280;3343;42.896;23.912;2022-07-06T11:16:24;96510.09;;;31.39;54.57
6615;BME280;3343;42.896;23.912;2022-07-06T11:19:04;96524.75;;;31.81;55.58
6615;BME280;3343;42.896;23.912;2022-07-06T11:21:37;96522.03;;;31.81;53.81
6615;BME280;3343;42.896;23.912;2022-07-06T11:24:05;96519.19;;;31.51;55.07
6615;BME280;3343;42.896;23.912;2022-07-06T11:26:33;96517.41;;;31.64;53.60
6615;BME280;3343;42.896;23.912;2022-07-06T11:29:04;96516.03;;;32.13;51.91
6615;BME280;3343;42.896;23.912;2022-07-06T11:31:36;96517.75;;;32.26;51.13
6615;BME280;3343;42.896;23.912;2022-07-06T11:34:03;96525.38;;;32.42;50.99
6615;BME280;3343;42.896;23.912;2022-07-06T11:36:30;96506.94;;;31.92;48.48
6615;BME280;3343;42.896;23.912;2022-07-06T11:38:58;96521.72;;;32.38;49.39
6615;BME280;3343;42.896;23.912;2022-07-06T11:41:25;96509.03;;;32.71;48.91
6615;BME280;3343;42.896;23.912;2022-07-06T11:43:52;96523.25;;;32.77;44.76
6615;BME280;3343;42.896;23.912;2022-07-06T11:46:24;96515.69;;;33.12;46.62
6615;BME280;3343;42.896;23.912;2022-07-06T11:48:53;96517.16;;;32.80;45.80
6615;BME280;3343;42.896;23.912;2022-07-06T11:51:20;96494.19;;;33.10;43.12
6615;BME280;3343;42.896;23.912;2022-07-06T11:53:51;96508.47;;;33.49;46.40
6615;BME280;3343;42.896;23.912;2022-07-06T11:56:18;96497.47;;;33.58;42.97
6615;BME280;3343;42.896;23.912;2022-07-06T11:58:49;96506.19;;;34.54;41.90
6615;BME280;3343;42.896;23.912;2022-07-06T12:01:16;96493.31;;;34.78;41.04
6615;BME280;3343;42.896;23.912;2022-07-06T12:03:45;96495.13;;;34.62;39.33
6615;BME280;3343;42.896;23.912;2022-07-06T12:06:14;96478.78;;;33.47;42.25
6615;BME280;3343;42.896;23.912;2022-07-06T12:08:43;96486.94;;;33.35;42.44
6615;BME280;3343;42.896;23.912;2022-07-06T12:11:17;96485.78;;;33.69;42.43
6615;BME280;3343;42.896;23.912;2022-07-06T12:13:45;96482.13;;;33.86;41.62
6615;BME280;3343;42.896;23.912;2022-07-06T12:16:14;96484.34;;;32.68;43.51
6615;BME280;3343;42.896;23.912;2022-07-06T12:18:44;96483.63;;;31.82;46.72
6615;BME280;3343;42.896;23.912;2022-07-06T12:21:14;96482.47;;;31.92;45.97
6615;BME280;3343;42.896;23.912;2022-07-06T12:23:43;96482.84;;;31.64;48.40
6615;BME280;3343;42.896;23.912;2022-07-06T12:26:12;96475.06;;;31.20;49.10
6615;BME280;3343;42.896;23.912;2022-07-06T12:28:40;96481.78;;;31.22;48.30
6615;BME280;3343;42.896;23.912;2022-07-06T12:31:07;96478.53;;;31.55;48.36
6615;BME280;3343;42.896;23.912;2022-07-06T12:33:35;96479.50;;;32.14;47.63
6615;BME280;3343;42.896;23.912;2022-07-06T12:36:14;96483.31;;;32.30;45.33
6615;BME280;3343;42.896;23.912;2022-07-06T12:39:09;96473.69;;;32.83;44.54
6615;BME280;3343;42.896;23.912;2022-07-06T12:41:37;96474.31;;;32.59;42.22
6615;BME280;3343;42.896;23.912;2022-07-06T12:44:06;96461.00;;;32.87;43.37
6615;BME280;3343;42.896;23.912;2022-07-06T12:46:35;96458.47;;;32.82;41.15
6615;BME280;3343;42.896;23.912;2022-07-06T12:49:10;96457.28;;;32.92;41.61
6615;BME280;3343;42.896;23.912;2022-07-06T12:51:59;96462.22;;;32.69;41.66
6615;BME280;3343;42.896;23.912;2022-07-06T12:54:29;96453.03;;;32.82;41.11
6615;BME280;3343;42.896;23.912;2022-07-06T12:57:10;96444.94;;;32.65;42.41
6615;BME280;3343;42.896;23.912;2022-07-06T12:59:40;96449.09;;;33.34;40.45
6615;BME280;3343;42.896;23.912;2022-07-06T13:02:10;96442.56;;;33.59;38.93
6615;BME280;3343;42.896;23.912;2022-07-06T13:04:43;96434.25;;;33.89;39.04
6615;BME280;3343;42.896;23.912;2022-07-06T13:07:18;96437.78;;;34.38;38.22
6615;BME280;3343;42.896;23.912;2022-07-06T13:09:46;96432.69;;;33.79;39.67
6615;BME280;3343;42.896;23.912;2022-07-06T13:12:13;96430.59;;;33.84;41.26
6615;BME280;3343;42.896;23.912;2022-07-06T13:14:39;96426.63;;;33.82;40.26
6615;BME280;3343;42.896;23.912;2022-07-06T13:17:07;96427.06;;;33.84;39.83